createdAt,value
2023-05-04T00:01:22.759Z,98725.22
2023-05-04T00:03:49.826Z,98720.34
2023-05-04T00:06:17.130Z,98724.88
2023-05-04T00:08:44.077Z,98710.78
2023-05-04T00:11:11.587Z,98715.78
2023-05-04T00:13:38.719Z,98711.00
2023-05-04T00:16:05.939Z,98713.41
2023-05-04T00:18:33.614Z,98717.78
2023-05-04T00:21:00.655Z,98713.94
2023-05-04T00:23:27.760Z,98709.88
2023-05-04T00:25:54.735Z,98713.84
2023-05-04T00:28:21.707Z,98710.91
2023-05-04T00:30:48.998Z,98706.88
2023-05-04T00:33:16.175Z,98708.63
2023-05-04T00:35:43.425Z,98698.41
2023-05-04T00:38:10.402Z,98699.53
2023-05-04T00:40:37.492Z,98698.63
2023-05-04T00:43:04.493Z,98699.13
2023-05-04T00:45:32.511Z,98694.56
2023-05-04T00:48:00.170Z,98690.13
2023-05-04T00:50:28.753Z,98683.38
2023-05-04T00:52:59.175Z,98680.09
2023-05-04T00:55:26.796Z,98687.72
2023-05-04T00:57:54.305Z,98689.66
2023-05-04T01:00:21.553Z,98690.88
2023-05-04T01:02:50.028Z,98689.44
2023-05-04T01:05:17.344Z,98690.25
2023-05-04T01:08:02.160Z,98682.59
2023-05-04T01:10:53.775Z,98692.78
2023-05-04T01:13:22.558Z,98696.38
2023-05-04T01:15:49.821Z,98696.22
2023-05-04T01:18:17.165Z,98692.28
2023-05-04T01:20:44.282Z,98699.81
2023-05-04T01:23:11.694Z,98704.53
2023-05-04T01:26:11.294Z,98703.25
2023-05-04T01:28:45.656Z,98701.00
2023-05-04T01:31:17.039Z,98701.22
2023-05-04T01:33:45.355Z,98702.28
2023-05-04T01:36:12.380Z,98697.16
2023-05-04T01:38:39.353Z,98696.16
2023-05-04T01:41:06.706Z,98691.03
2023-05-04T01:43:33.645Z,98691.00
2023-05-04T01:46:00.602Z,98683.47
2023-05-04T01:48:28.424Z,98681.63
2023-05-04T01:50:55.591Z,98679.31
2023-05-04T01:53:22.562Z,98672.16
2023-05-04T01:55:49.582Z,98674.63
2023-05-04T01:58:18.399Z,98667.69
2023-05-04T02:00:46.244Z,98667.22
2023-05-04T02:03:13.557Z,98672.63
2023-05-04T02:05:40.826Z,98667.66
2023-05-04T02:08:07.915Z,98666.81
2023-05-04T02:10:34.943Z,98676.88
2023-05-04T02:13:01.953Z,98676.28
2023-05-04T02:15:28.977Z,98680.38
2023-05-04T02:17:56.010Z,98682.06
2023-05-04T02:20:23.037Z,98689.28
2023-05-04T02:22:49.972Z,98687.81
2023-05-04T02:25:18.764Z,98686.78
2023-05-04T02:27:46.054Z,98691.94
2023-05-04T02:30:13.872Z,98691.69
2023-05-04T02:32:41.215Z,98686.59
2023-05-04T02:35:08.560Z,98692.94
2023-05-04T02:37:35.897Z,98687.41
2023-05-04T02:40:04.473Z,98684.75
2023-05-04T02:42:32.247Z,98687.84
2023-05-04T02:44:59.465Z,98687.03
2023-05-04T02:47:26.746Z,98679.03
2023-05-04T02:49:53.813Z,98681.69
2023-05-04T02:52:20.767Z,98669.78
2023-05-04T02:54:47.788Z,98681.69
2023-05-04T02:57:14.794Z,98683.72
2023-05-04T02:59:41.809Z,98678.63
2023-05-04T03:02:08.845Z,98673.06
2023-05-04T03:04:35.984Z,98680.66
2023-05-04T03:07:03.166Z,98677.56
2023-05-04T03:09:30.451Z,98672.63
2023-05-04T03:11:59.082Z,98667.91
2023-05-04T03:14:26.407Z,98669.38
2023-05-04T03:16:53.499Z,98671.38
2023-05-04T03:19:22.297Z,98675.69
2023-05-04T03:21:49.946Z,98673.03
2023-05-04T03:24:18.156Z,98674.50
2023-05-04T03:26:45.353Z,98677.34
2023-05-04T03:29:12.312Z,98671.59
2023-05-04T03:31:40.495Z,98668.72
2023-05-04T03:34:09.899Z,98675.06
2023-05-04T03:36:36.882Z,98665.84
2023-05-04T03:39:03.996Z,98671.59
2023-05-04T03:41:31.969Z,98661.09
2023-05-04T03:43:59.549Z,98665.41
2023-05-04T03:46:26.729Z,98662.75
2023-05-04T03:48:54.021Z,98664.38
2023-05-04T03:51:21.738Z,98661.75
2023-05-04T03:53:48.679Z,98661.72
2023-05-04T03:56:17.678Z,98664.00
2023-05-04T03:58:44.933Z,98662.56
2023-05-04T04:01:14.468Z,98668.50
2023-05-04T04:03:41.719Z,98659.03
2023-05-04T04:06:10.512Z,98669.31
2023-05-04T04:08:38.251Z,98670.53
2023-05-04T04:11:05.561Z,98670.72
2023-05-04T04:13:32.603Z,98667.25
2023-05-04T04:15:59.669Z,98668.81
2023-05-04T04:18:26.749Z,98666.78
2023-05-04T04:20:53.937Z,98672.19
2023-05-04T04:23:21.804Z,98671.06
2023-05-04T04:25:49.025Z,98666.44
2023-05-04T04:28:16.619Z,98666.16
2023-05-04T04:30:43.900Z,98667.13
2023-05-04T04:33:10.968Z,98669.63
2023-05-04T04:35:38.085Z,98668.38
2023-05-04T04:38:05.089Z,98658.16
2023-05-04T04:40:32.105Z,98661.75
2023-05-04T04:42:59.081Z,98666.66
2023-05-04T04:45:26.378Z,98669.94
2023-05-04T04:47:53.462Z,98675.69
2023-05-04T04:50:20.787Z,98661.59
2023-05-04T04:52:47.729Z,98663.06
2023-05-04T04:55:16.821Z,98666.13
2023-05-04T04:57:43.905Z,98661.44
2023-05-04T05:00:11.949Z,98663.09
2023-05-04T05:02:39.016Z,98667.09
2023-05-04T05:05:07.020Z,98662.22
2023-05-04T05:07:34.293Z,98673.66
2023-05-04T05:10:01.861Z,98663.25
2023-05-04T05:12:29.013Z,98658.94
2023-05-04T05:14:55.967Z,98653.59
2023-05-04T05:17:23.002Z,98658.34
2023-05-04T05:19:50.047Z,98654.91
2023-05-04T05:22:17.324Z,98658.38
2023-05-04T05:24:44.304Z,98650.59
2023-05-04T05:27:11.321Z,98651.00
2023-05-04T05:29:39.019Z,98648.34
2023-05-04T05:32:06.526Z,98650.78
2023-05-04T05:34:33.594Z,98647.97
2023-05-04T05:37:00.581Z,98655.16
2023-05-04T05:39:28.815Z,98657.75
2023-05-04T05:41:58.260Z,98658.66
2023-05-04T05:44:25.304Z,98662.28
2023-05-04T05:46:52.354Z,98662.13
2023-05-04T05:49:19.314Z,98661.25
2023-05-04T05:51:46.426Z,98665.94
2023-05-04T05:54:13.384Z,98660.06
2023-05-04T05:56:40.331Z,98653.09
2023-05-04T05:59:07.362Z,98653.34
2023-05-04T06:01:34.398Z,98655.78
2023-05-04T06:04:01.500Z,98651.50
2023-05-04T06:06:28.556Z,98649.03
2023-05-04T06:08:55.723Z,98644.94
2023-05-04T06:11:22.688Z,98645.94
2023-05-04T06:13:49.797Z,98646.38
2023-05-04T06:16:16.819Z,98645.97
2023-05-04T06:18:43.796Z,98641.44
2023-05-04T06:21:10.878Z,98641.84
2023-05-04T06:23:37.957Z,98644.63
2023-05-04T06:26:06.156Z,98652.63
2023-05-04T06:28:33.373Z,98641.59
2023-05-04T06:31:00.412Z,98640.66
2023-05-04T06:33:27.437Z,98637.78
2023-05-04T06:35:54.840Z,98641.91
2023-05-04T06:38:22.099Z,98643.31
2023-05-04T06:40:49.126Z,98645.69
2023-05-04T06:43:16.076Z,98645.34
2023-05-04T06:45:43.277Z,98647.41
2023-05-04T06:48:11.792Z,98645.13
2023-05-04T06:50:39.789Z,98636.97
2023-05-04T06:53:10.261Z,98636.13
2023-05-04T06:55:38.201Z,98645.97
2023-05-04T06:58:05.334Z,98644.91
2023-05-04T07:00:32.926Z,98644.00
2023-05-04T07:02:59.973Z,98647.41
2023-05-04T07:05:27.038Z,98642.72
2023-05-04T07:07:54.097Z,98643.94
2023-05-04T07:10:21.221Z,98640.22
2023-05-04T07:12:48.941Z,98639.84
2023-05-04T07:15:15.952Z,98641.06
2023-05-04T07:17:43.204Z,98635.31
2023-05-04T07:20:11.337Z,98635.09
2023-05-04T07:22:38.290Z,98639.00
2023-05-04T07:25:05.668Z,98651.72
2023-05-04T07:27:32.698Z,98647.03
2023-05-04T07:29:59.638Z,98640.44
2023-05-04T07:32:26.672Z,98643.09
2023-05-04T07:34:53.705Z,98644.94
2023-05-04T07:37:20.694Z,98642.66
2023-05-04T07:39:47.649Z,98638.00
2023-05-04T07:42:14.628Z,98637.31
2023-05-04T07:44:41.770Z,98628.66
2023-05-04T07:47:08.943Z,98626.19
2023-05-04T07:49:35.939Z,98623.63
2023-05-04T07:52:04.219Z,98625.19
2023-05-04T07:54:31.412Z,98625.56
2023-05-04T07:56:58.342Z,98623.31
2023-05-04T07:59:25.311Z,98623.31
2023-05-04T08:01:52.766Z,98622.03
2023-05-04T08:04:20.026Z,98624.16
2023-05-04T08:06:47.236Z,98616.22
2023-05-04T08:09:14.324Z,98625.19
2023-05-04T08:11:41.587Z,98621.47
2023-05-04T08:14:09.159Z,98615.19
2023-05-04T08:16:36.325Z,98615.94
2023-05-04T08:19:03.464Z,98617.88
2023-05-04T08:21:30.475Z,98613.31
2023-05-04T08:23:57.444Z,98609.63
2023-05-04T08:26:24.739Z,98611.63
2023-05-04T08:28:51.742Z,98595.88
2023-05-04T08:31:19.189Z,98599.75
2023-05-04T08:33:46.483Z,98596.09
2023-05-04T08:36:13.605Z,98585.91
2023-05-04T08:38:40.863Z,98591.25
2023-05-04T08:41:08.945Z,98584.84
2023-05-04T08:43:36.966Z,98592.91
2023-05-04T08:46:04.865Z,98590.13
2023-05-04T08:48:34.496Z,98594.31
2023-05-04T08:51:02.899Z,98601.25
2023-05-04T08:53:31.508Z,98597.13
2023-05-04T08:56:04.692Z,98592.28
2023-05-04T08:58:32.510Z,98590.66
2023-05-04T09:01:01.375Z,98580.72
2023-05-04T09:03:30.370Z,98580.47
2023-05-04T09:05:58.494Z,98586.78
2023-05-04T09:08:25.680Z,98578.75
2023-05-04T09:10:52.650Z,98576.06
2023-05-04T09:13:19.832Z,98572.50
2023-05-04T09:15:56.911Z,98574.28
2023-05-04T09:18:23.984Z,98560.63
2023-05-04T09:20:50.955Z,98558.50
2023-05-04T09:23:18.746Z,98560.75
2023-05-04T09:25:55.984Z,98564.19
2023-05-04T09:28:36.920Z,98554.03
2023-05-04T09:31:04.035Z,98556.31
2023-05-04T09:33:31.952Z,98558.28
2023-05-04T09:36:21.104Z,98557.63
2023-05-04T09:38:48.773Z,98546.94
2023-05-04T09:41:15.907Z,98540.13
2023-05-04T09:43:44.821Z,98540.25
2023-05-04T09:46:19.314Z,98540.84
2023-05-04T09:48:55.024Z,98538.50
2023-05-04T09:51:25.839Z,98537.53
2023-05-04T09:53:53.918Z,98535.22
2023-05-04T09:56:33.708Z,98526.25
2023-05-04T09:59:00.805Z,98531.34
2023-05-04T10:01:31.994Z,98537.22
2023-05-04T10:03:59.124Z,98532.75
2023-05-04T10:06:30.575Z,98526.16
2023-05-04T10:09:00.620Z,98513.13
2023-05-04T10:11:28.704Z,98514.53
2023-05-04T10:13:59.312Z,98509.06
2023-05-04T10:17:00.172Z,98499.69
2023-05-04T10:19:56.734Z,98505.69
2023-05-04T10:23:03.741Z,98503.75
2023-05-04T10:26:25.849Z,98503.78
2023-05-04T10:29:24.756Z,98504.16
2023-05-04T10:31:53.351Z,98494.53
2023-05-04T10:34:32.277Z,98489.91
2023-05-04T10:37:01.859Z,98483.81
2023-05-04T10:39:34.228Z,98491.97
2023-05-04T10:42:03.981Z,98480.91
2023-05-04T10:44:58.164Z,98492.91
2023-05-04T10:47:38.241Z,98482.41
2023-05-04T10:50:11.178Z,98487.44
2023-05-04T10:52:53.819Z,98476.94
2023-05-04T10:55:22.130Z,98479.47
2023-05-04T10:57:55.282Z,98464.19
2023-05-04T11:00:23.810Z,98456.53
2023-05-04T11:02:51.050Z,98462.88
2023-05-04T11:05:20.176Z,98458.53
2023-05-04T11:07:53.072Z,98444.16
2023-05-04T11:10:25.862Z,98455.56
2023-05-04T11:12:55.418Z,98445.41
2023-05-04T11:15:22.645Z,98453.47
2023-05-04T11:17:52.033Z,98441.91
2023-05-04T11:20:27.509Z,98447.00
2023-05-04T11:22:54.904Z,98456.50
2023-05-04T11:25:29.927Z,98454.88
2023-05-04T11:28:01.843Z,98451.47
2023-05-04T11:30:36.013Z,98443.81
2023-05-04T11:33:05.192Z,98439.44
2023-05-04T11:35:32.342Z,98435.56
2023-05-04T11:37:59.370Z,98423.50
2023-05-04T11:40:27.408Z,98429.66
2023-05-04T11:42:57.270Z,98430.84
2023-05-04T11:45:27.458Z,98432.88
2023-05-04T11:47:56.871Z,98430.00
2023-05-04T11:50:25.796Z,98420.16
2023-05-04T11:53:09.302Z,98426.28
2023-05-04T11:55:38.068Z,98422.91
2023-05-04T11:58:06.762Z,98413.22
2023-05-04T12:00:41.942Z,98417.59
2023-05-04T12:03:27.979Z,98412.50
2023-05-04T12:06:03.153Z,98410.22
2023-05-04T12:08:35.083Z,98416.03
2023-05-04T12:11:25.591Z,98413.50
2023-05-04T12:14:11.608Z,98423.19
2023-05-04T12:16:39.285Z,98411.31
2023-05-04T12:19:13.247Z,98399.34
2023-05-04T12:21:51.985Z,98404.53
2023-05-04T12:24:23.819Z,98408.72
2023-05-04T12:26:51.380Z,98404.56
2023-05-04T12:29:18.535Z,98397.78
2023-05-04T12:31:45.746Z,98400.31
2023-05-04T12:34:12.765Z,98393.84
2023-05-04T12:36:39.731Z,98403.34
2023-05-04T12:39:06.711Z,98399.06
2023-05-04T12:41:33.958Z,98397.19
2023-05-04T12:44:01.407Z,98390.78
2023-05-04T12:46:28.601Z,98390.31
2023-05-04T12:48:56.681Z,98390.47
2023-05-04T12:51:23.620Z,98388.38
2023-05-04T12:53:50.662Z,98392.25
2023-05-04T12:56:17.636Z,98383.03
2023-05-04T12:58:45.155Z,98370.28
2023-05-04T13:01:12.332Z,98377.00
2023-05-04T13:03:39.605Z,98372.25
2023-05-04T13:06:06.932Z,98380.22
2023-05-04T13:08:33.902Z,98360.81
2023-05-04T13:11:01.330Z,98352.72
2023-05-04T13:13:29.633Z,98351.38
2023-05-04T13:15:57.491Z,98341.63
2023-05-04T13:18:27.318Z,98353.72
2023-05-04T13:20:56.026Z,98344.28
2023-05-04T13:23:23.657Z,98349.31
2023-05-04T13:25:51.198Z,98339.94
2023-05-04T13:28:18.986Z,98347.16
2023-05-04T13:30:45.935Z,98345.75
2023-05-04T13:33:27.377Z,98332.09
2023-05-04T13:35:57.729Z,98333.63
2023-05-04T13:38:25.037Z,98329.88
2023-05-04T13:40:52.015Z,98318.56
2023-05-04T13:43:19.037Z,98311.78
2023-05-04T13:45:46.169Z,98313.22
2023-05-04T13:48:13.256Z,98316.28
2023-05-04T13:50:40.380Z,98308.63
2023-05-04T13:53:07.473Z,98303.28
2023-05-04T13:55:34.564Z,98307.34
2023-05-04T13:58:01.531Z,98304.78
2023-05-04T14:00:28.620Z,98305.59
2023-05-04T14:02:55.793Z,98296.94
2023-05-04T14:05:23.042Z,98285.06
2023-05-04T14:07:51.691Z,98278.97
2023-05-04T14:10:18.869Z,98272.63
2023-05-04T14:15:32.976Z,98260.56
2023-05-04T14:18:00.026Z,98260.47
2023-05-04T14:20:27.068Z,98250.44
2023-05-04T14:22:54.120Z,98244.56
2023-05-04T14:25:22.388Z,98238.78
2023-05-04T14:27:49.400Z,98241.81
2023-05-04T14:30:17.336Z,98241.75
2023-05-04T14:32:44.458Z,98243.28
2023-05-04T14:35:12.811Z,98242.28
2023-05-04T14:37:40.574Z,98241.56
2023-05-04T14:40:10.655Z,98239.19
2023-05-04T14:42:38.519Z,98237.44
2023-05-04T14:45:07.668Z,98231.94
2023-05-04T14:47:35.571Z,98223.88
2023-05-04T14:50:03.475Z,98232.69
2023-05-04T14:52:31.896Z,98231.81
2023-05-04T14:54:59.069Z,98222.00
2023-05-04T14:57:26.162Z,98221.56
2023-05-04T14:59:53.127Z,98218.03
2023-05-04T15:02:20.964Z,98218.00
2023-05-04T15:04:49.186Z,98218.09
2023-05-04T15:07:18.363Z,98203.44
2023-05-04T15:09:45.896Z,98209.75
2023-05-04T15:12:12.939Z,98204.56
2023-05-04T15:14:39.912Z,98198.41
2023-05-04T15:17:07.411Z,98202.34
2023-05-04T15:19:38.322Z,98197.72
2023-05-04T15:22:06.986Z,98204.97
2023-05-04T15:24:34.413Z,98192.28
2023-05-04T15:27:02.076Z,98192.13
2023-05-04T15:29:29.435Z,98203.00
2023-05-04T15:31:56.593Z,98192.13
2023-05-04T15:34:23.724Z,98191.13
2023-05-04T15:36:50.859Z,98193.56
2023-05-04T15:39:17.783Z,98197.00
2023-05-04T15:41:44.740Z,98194.44
2023-05-04T15:44:11.871Z,98185.28
2023-05-04T15:46:39.363Z,98185.84
2023-05-04T15:49:06.562Z,98190.38
2023-05-04T15:51:33.645Z,98179.59
2023-05-04T15:54:00.638Z,98180.59
2023-05-04T15:56:28.650Z,98181.09
2023-05-04T15:58:58.020Z,98184.50
2023-05-04T16:01:25.384Z,98187.72
2023-05-04T16:03:55.672Z,98193.47
2023-05-04T16:06:23.730Z,98189.34
2023-05-04T16:08:50.902Z,98193.03
2023-05-04T16:11:17.945Z,98191.13
2023-05-04T16:13:46.234Z,98193.03
2023-05-04T16:16:13.351Z,98193.25
2023-05-04T16:18:40.336Z,98188.56
2023-05-04T16:21:08.875Z,98188.53
2023-05-04T16:23:36.415Z,98191.59
2023-05-04T16:26:03.617Z,98192.09
2023-05-04T16:28:31.136Z,98182.50
2023-05-04T16:30:58.160Z,98190.88
2023-05-04T16:33:26.802Z,98188.84
2023-05-04T16:35:53.925Z,98179.88
2023-05-04T16:38:21.334Z,98183.19
2023-05-04T16:40:48.446Z,98189.06
2023-05-04T16:43:15.966Z,98182.94
2023-05-04T16:45:43.378Z,98177.91
2023-05-04T16:48:10.708Z,98184.38
2023-05-04T16:50:38.330Z,98176.13
2023-05-04T16:53:05.263Z,98170.53
2023-05-04T16:55:32.243Z,98169.91
2023-05-04T16:57:59.410Z,98171.09
2023-05-04T17:00:26.521Z,98159.88
2023-05-04T17:02:54.106Z,98160.16
2023-05-04T17:05:21.600Z,98165.75
2023-05-04T17:07:48.687Z,98148.00
2023-05-04T17:10:18.929Z,98153.81
2023-05-04T17:12:46.352Z,98152.03
2023-05-04T17:15:13.780Z,98148.53
2023-05-04T17:17:41.575Z,98153.94
2023-05-04T17:20:14.592Z,98153.41
2023-05-04T17:22:43.088Z,98146.38
2023-05-04T17:25:11.652Z,98145.81
2023-05-04T17:27:38.996Z,98151.19
2023-05-04T17:30:07.017Z,98157.91
2023-05-04T17:32:35.487Z,98154.22
2023-05-04T17:35:16.027Z,98149.03
2023-05-04T17:37:51.215Z,98166.19
2023-05-04T17:40:18.350Z,98162.94
2023-05-04T17:42:45.471Z,98167.69
2023-05-04T17:45:12.617Z,98170.00
2023-05-04T17:47:39.841Z,98165.94
2023-05-04T17:50:07.650Z,98167.72
2023-05-04T17:52:37.210Z,98166.44
2023-05-04T17:55:05.134Z,98166.84
2023-05-04T17:57:32.436Z,98163.25
2023-05-04T18:00:00.151Z,98167.06
2023-05-04T18:02:29.630Z,98169.22
2023-05-04T18:04:56.604Z,98162.47
2023-05-04T18:07:23.569Z,98165.97
2023-05-04T18:09:50.947Z,98163.50
2023-05-04T18:12:18.322Z,98169.59
2023-05-04T18:14:45.241Z,98178.31
2023-05-04T18:17:12.179Z,98179.34
2023-05-04T18:19:39.520Z,98176.69
2023-05-04T18:22:06.524Z,98174.06
2023-05-04T18:24:34.077Z,98177.88
2023-05-04T18:27:02.093Z,98180.03
2023-05-04T18:29:29.451Z,98185.41
2023-05-04T18:31:56.841Z,98185.97
2023-05-04T18:34:24.211Z,98187.63
2023-05-04T18:36:51.657Z,98186.50
2023-05-04T18:39:19.048Z,98195.69
2023-05-04T18:41:46.738Z,98194.34
2023-05-04T18:44:17.223Z,98197.31
2023-05-04T18:46:44.742Z,98197.06
2023-05-04T18:49:11.784Z,98198.13
2023-05-04T18:51:41.685Z,98204.88
2023-05-04T18:54:09.205Z,98203.53
2023-05-04T18:56:36.539Z,98210.28
2023-05-04T18:59:05.929Z,98207.56
2023-05-04T19:01:33.453Z,98208.38
2023-05-04T19:04:01.101Z,98214.06
2023-05-04T19:06:28.143Z,98215.16
2023-05-04T19:08:55.582Z,98222.72
2023-05-04T19:11:22.671Z,98229.19
2023-05-04T19:13:50.002Z,98232.47
2023-05-04T19:16:17.375Z,98235.91
2023-05-04T19:18:45.677Z,98239.41
2023-05-04T19:21:13.475Z,98236.94
2023-05-04T19:23:40.933Z,98245.38
2023-05-04T19:26:07.950Z,98240.00
2023-05-04T19:28:35.293Z,98240.25
2023-05-04T19:31:02.602Z,98237.81
2023-05-04T19:33:40.824Z,98242.16
2023-05-04T19:36:16.282Z,98247.81
2023-05-04T19:38:43.531Z,98256.16
2023-05-04T19:41:10.641Z,98250.94
2023-05-04T19:43:39.011Z,98253.13
2023-05-04T19:46:06.687Z,98261.47
2023-05-04T19:48:33.828Z,98257.09
2023-05-04T19:51:00.865Z,98264.16
2023-05-04T19:53:27.959Z,98270.38
2023-05-04T19:55:55.014Z,98266.03
2023-05-04T19:58:25.970Z,98262.75
2023-05-04T20:00:53.398Z,98266.03
2023-05-04T20:03:22.648Z,98269.00
2023-05-04T20:05:51.925Z,98265.22
2023-05-04T20:08:19.418Z,98271.63
2023-05-04T20:10:46.682Z,98274.00
2023-05-04T20:13:13.855Z,98269.50
2023-05-04T20:15:40.973Z,98273.75
2023-05-04T20:18:08.551Z,98268.38
2023-05-04T20:20:35.785Z,98268.84
2023-05-04T20:23:03.167Z,98280.38
2023-05-04T20:25:30.196Z,98274.63
2023-05-04T20:27:57.610Z,98275.19
2023-05-04T20:30:28.151Z,98268.66
2023-05-04T20:32:55.513Z,98280.09
2023-05-04T20:35:22.786Z,98264.88
2023-05-04T20:37:49.817Z,98266.09
2023-05-04T20:40:16.958Z,98261.81
2023-05-04T20:42:44.422Z,98268.25
2023-05-04T20:45:11.500Z,98269.09
2023-05-04T20:47:38.591Z,98266.63
2023-05-04T20:50:08.168Z,98269.69
2023-05-04T20:52:35.443Z,98266.81
2023-05-04T20:55:02.568Z,98271.44
2023-05-04T20:57:30.024Z,98266.16
2023-05-04T20:59:57.138Z,98273.44
2023-05-04T21:02:24.195Z,98263.47
2023-05-04T21:04:52.301Z,98270.50
2023-05-04T21:07:19.510Z,98259.53
2023-05-04T21:09:46.539Z,98265.97
2023-05-04T21:12:13.668Z,98263.63
2023-05-04T21:14:40.745Z,98261.25
2023-05-04T21:17:08.490Z,98255.72
2023-05-04T21:19:35.450Z,98256.94
2023-05-04T21:22:02.427Z,98258.88
2023-05-04T21:24:31.253Z,98257.88
2023-05-04T21:26:58.284Z,98259.28
2023-05-04T21:29:25.678Z,98261.63
2023-05-04T21:31:52.735Z,98256.84
2023-05-04T21:34:19.826Z,98246.97
2023-05-04T21:36:46.826Z,98246.78
2023-05-04T21:39:14.512Z,98248.53
2023-05-04T21:41:41.545Z,98252.50
2023-05-04T21:44:08.848Z,98242.72
2023-05-04T21:46:35.873Z,98246.38
2023-05-04T21:49:02.890Z,98243.28
2023-05-04T21:51:29.958Z,98246.41
2023-05-04T21:53:57.081Z,98240.53
2023-05-04T21:56:24.045Z,98250.28
2023-05-04T21:58:51.005Z,98242.19
2023-05-04T22:01:18.408Z,98234.16
2023-05-04T22:03:45.952Z,98241.75
2023-05-04T22:06:13.128Z,98236.28
2023-05-04T22:08:40.104Z,98239.97
2023-05-04T22:11:07.668Z,98243.56
2023-05-04T22:13:34.633Z,98240.66
2023-05-04T22:16:02.040Z,98237.19
2023-05-04T22:18:29.176Z,98237.22
2023-05-04T22:20:56.210Z,98244.25
2023-05-04T22:23:23.544Z,98235.97
2023-05-04T22:25:50.716Z,98228.59
2023-05-04T22:28:17.787Z,98239.22
2023-05-04T22:30:44.797Z,98234.16
2023-05-04T22:33:11.832Z,98243.22
2023-05-04T22:35:38.832Z,98234.78
2023-05-04T22:38:05.778Z,98239.94
2023-05-04T22:40:33.254Z,98242.78
2023-05-04T22:43:00.542Z,98242.38
2023-05-04T22:45:27.590Z,98243.19
2023-05-04T22:47:54.749Z,98245.53
2023-05-04T22:50:21.729Z,98248.13
2023-05-04T22:52:48.941Z,98249.78
2023-05-04T22:55:16.266Z,98250.50
2023-05-04T22:57:43.246Z,98242.66
2023-05-04T23:00:11.317Z,98254.94
2023-05-04T23:02:38.796Z,98242.47
2023-05-04T23:05:06.889Z,98241.50
2023-05-04T23:07:34.015Z,98245.69
2023-05-04T23:10:01.430Z,98241.22
2023-05-04T23:12:28.532Z,98250.50
2023-05-04T23:14:55.534Z,98252.19
2023-05-04T23:17:22.590Z,98247.59
2023-05-04T23:19:49.790Z,98257.94
2023-05-04T23:22:17.194Z,98248.88
2023-05-04T23:24:44.190Z,98243.59
2023-05-04T23:27:11.509Z,98247.56
2023-05-04T23:29:38.626Z,98245.69
2023-05-04T23:32:06.419Z,98242.78
2023-05-04T23:34:33.538Z,98253.50
2023-05-04T23:37:00.637Z,98253.72
2023-05-04T23:39:27.733Z,98249.63
2023-05-04T23:41:54.713Z,98240.88
2023-05-04T23:44:21.725Z,98248.81
2023-05-04T23:46:48.749Z,98254.81
2023-05-04T23:49:15.807Z,98254.94
2023-05-04T23:51:42.937Z,98254.91
2023-05-04T23:54:09.944Z,98259.09
2023-05-04T23:56:36.964Z,98260.13
2023-05-04T23:59:04.828Z,98256.50
